sensor_id;sensor_type;location;lat;lon;timestamp;pressure;altitude;pressure_sealevel;temperature;humidity
7297;BME280;40758;54.038;11.684;2023-02-17T00:01:38;101294.56;;;6.30;100.00
7297;BME280;40758;54.038;11.684;2023-02-17T00:04:06;101279.63;;;6.27;100.00
7297;BME280;40758;54.038;11.684;2023-02-17T00:06:35;101269.81;;;6.28;100.00
7297;BME280;40758;54.038;11.684;2023-02-17T00:09:04;101279.41;;;6.30;100.00
7297;BME280;40758;54.038;11.684;2023-02-17T00:11:33;101274.09;;;6.30;100.00
7297;BME280;40758;54.038;11.684;2023-02-17T00:14:03;101275.81;;;6.31;100.00
7297;BME280;40758;54.038;11.684;2023-02-17T00:16:32;101271.69;;;6.26;100.00
7297;BME280;40758;54.038;11.684;2023-02-17T00:19:01;101270.47;;;6.31;100.00
7297;BME280;40758;54.038;11.684;2023-02-17T00:21:53;101274.44;;;6.40;100.00
7297;BME280;40758;54.038;11.684;2023-02-17T00:24:22;101275.06;;;6.29;100.00
7297;BME280;40758;54.038;11.684;2023-02-17T00:26:50;101265.22;;;6.30;100.00
7297;BME280;40758;54.038;11.684;2023-02-17T00:29:21;101267.53;;;6.36;100.00
7297;BME280;40758;54.038;11.684;2023-02-17T00:31:52;101262.97;;;6.38;100.00
7297;BME280;40758;54.038;11.684;2023-02-17T00:34:20;101262.97;;;6.38;100.00
7297;BME280;40758;54.038;11.684;2023-02-17T00:36:49;101267.53;;;6.36;100.00
7297;BME280;40758;54.038;11.684;2023-02-17T00:39:17;101268.41;;;6.36;100.00
7297;BME280;40758;54.038;11.684;2023-02-17T00:41:46;101264.78;;;6.37;100.00
7297;BME280;40758;54.038;11.684;2023-02-17T00:44:16;101253.25;;;6.37;100.00
7297;BME280;40758;54.038;11.684;2023-02-17T00:46:47;101255.69;;;6.41;100.00
7297;BME280;40758;54.038;11.684;2023-02-17T00:49:18;101249.56;;;6.39;100.00
7297;BME280;40758;54.038;11.684;2023-02-17T00:51:47;101248.84;;;6.36;100.00
7297;BME280;40758;54.038;11.684;2023-02-17T00:54:17;101236.50;;;6.35;100.00
7297;BME280;40758;54.038;11.684;2023-02-17T00:56:46;101239.03;;;6.36;100.00
7297;BME280;40758;54.038;11.684;2023-02-17T00:59:14;101235.50;;;6.36;100.00
7297;BME280;40758;54.038;11.684;2023-02-17T01:01:43;101220.47;;;6.35;100.00
7297;BME280;40758;54.038;11.684;2023-02-17T01:04:13;101215.88;;;6.37;100.00
7297;BME280;40758;54.038;11.684;2023-02-17T01:06:41;101208.47;;;6.42;100.00
7297;BME280;40758;54.038;11.684;2023-02-17T01:09:13;101214.88;;;6.39;100.00
7297;BME280;40758;54.038;11.684;2023-02-17T01:11:42;101202.81;;;6.48;100.00
7297;BME280;40758;54.038;11.684;2023-02-17T01:14:13;101192.28;;;6.45;100.00
7297;BME280;40758;54.038;11.684;2023-02-17T01:16:45;101189.78;;;6.42;100.00
7297;BME280;40758;54.038;11.684;2023-02-17T01:19:18;101188.84;;;6.43;100.00
7297;BME280;40758;54.038;11.684;2023-02-17T01:21:46;101181.25;;;6.51;100.00
7297;BME280;40758;54.038;11.684;2023-02-17T01:24:15;101180.59;;;6.47;100.00
7297;BME280;40758;54.038;11.684;2023-02-17T01:26:43;101176.28;;;6.45;100.00
7297;BME280;40758;54.038;11.684;2023-02-17T01:29:11;101169.03;;;6.47;100.00
7297;BME280;40758;54.038;11.684;2023-02-17T01:31:40;101161.78;;;6.49;100.00
7297;BME280;40758;54.038;11.684;2023-02-17T01:34:10;101159.72;;;6.54;100.00
7297;BME280;40758;54.038;11.684;2023-02-17T01:36:39;101152.47;;;6.56;100.00
7297;BME280;40758;54.038;11.684;2023-02-17T01:39:12;101131.97;;;6.57;100.00
7297;BME280;40758;54.038;11.684;2023-02-17T01:41:41;101127.03;;;6.65;100.00
7297;BME280;40758;54.038;11.684;2023-02-17T01:44:15;101129.88;;;6.62;100.00
7297;BME280;40758;54.038;11.684;2023-02-17T01:46:46;101133.13;;;6.67;100.00
7297;BME280;40758;54.038;11.684;2023-02-17T01:49:24;101129.50;;;6.68;100.00
7297;BME280;40758;54.038;11.684;2023-02-17T01:52:05;101117.78;;;6.70;100.00
7297;BME280;40758;54.038;11.684;2023-02-17T01:54:41;101097.22;;;6.72;100.00
7297;BME280;40758;54.038;11.684;2023-02-17T01:57:14;101111.22;;;6.76;100.00
7297;BME280;40758;54.038;11.684;2023-02-17T01:59:45;101103.59;;;6.84;100.00
7297;BME280;40758;54.038;11.684;2023-02-17T02:02:15;101095.47;;;6.85;100.00
7297;BME280;40758;54.038;11.684;2023-02-17T02:04:48;101089.94;;;6.88;100.00
7297;BME280;40758;54.038;11.684;2023-02-17T02:07:25;101093.00;;;6.97;100.00
7297;BME280;40758;54.038;11.684;2023-02-17T02:09:57;101085.88;;;6.97;100.00
7297;BME280;40758;54.038;11.684;2023-02-17T02:12:28;101084.41;;;6.91;100.00
7297;BME280;40758;54.038;11.684;2023-02-17T02:15:02;101078.97;;;6.93;100.00
7297;BME280;40758;54.038;11.684;2023-02-17T02:17:43;101064.59;;;6.96;100.00
7297;BME280;40758;54.038;11.684;2023-02-17T02:24:15;101064.59;;;6.96;100.00
7297;BME280;40758;54.038;11.684;2023-02-17T02:27:24;101070.41;;;7.02;100.00
7297;BME280;40758;54.038;11.684;2023-02-17T02:30:27;101057.91;;;7.03;100.00
7297;BME280;40758;54.038;11.684;2023-02-17T02:33:12;101058.47;;;7.08;100.00
7297;BME280;40758;54.038;11.684;2023-02-17T02:35:54;101044.34;;;7.06;100.00
7297;BME280;40758;54.038;11.684;2023-02-17T02:38:30;101030.41;;;7.01;100.00
7297;BME280;40758;54.038;11.684;2023-02-17T02:41:10;101030.13;;;7.05;100.00
7297;BME280;40758;54.038;11.684;2023-02-17T02:43:41;101012.84;;;7.11;100.00
7297;BME280;40758;54.038;11.684;2023-02-17T02:46:10;101016.97;;;7.02;100.00
7297;BME280;40758;54.038;11.684;2023-02-17T02:48:40;101010.06;;;7.12;100.00
7297;BME280;40758;54.038;11.684;2023-02-17T02:51:42;101019.91;;;7.12;100.00
7297;BME280;40758;54.038;11.684;2023-02-17T02:54:37;101012.44;;;7.17;100.00
7297;BME280;40758;54.038;11.684;2023-02-17T02:57:36;101010.94;;;7.13;100.00
7297;BME280;40758;54.038;11.684;2023-02-17T03:00:18;101011.47;;;7.18;100.00
7297;BME280;40758;54.038;11.684;2023-02-17T03:02:54;101010.75;;;7.16;100.00
7297;BME280;40758;54.038;11.684;2023-02-17T03:05:35;101011.94;;;7.24;100.00
7297;BME280;40758;54.038;11.684;2023-02-17T03:08:13;100996.41;;;7.17;100.00
7297;BME280;40758;54.038;11.684;2023-02-17T03:10:46;100995.66;;;7.15;100.00
7297;BME280;40758;54.038;11.684;2023-02-17T03:13:16;100992.13;;;7.14;100.00
7297;BME280;40758;54.038;11.684;2023-02-17T03:15:46;100981.53;;;7.13;100.00
7297;BME280;40758;54.038;11.684;2023-02-17T03:18:15;100980.75;;;7.25;100.00
7297;BME280;40758;54.038;11.684;2023-02-17T03:20:52;100965.09;;;7.19;100.00
7297;BME280;40758;54.038;11.684;2023-02-17T03:23:21;100981.75;;;7.37;100.00
7297;BME280;40758;54.038;11.684;2023-02-17T03:25:50;100975.00;;;7.31;100.00
7297;BME280;40758;54.038;11.684;2023-02-17T03:28:18;100970.50;;;7.31;100.00
7297;BME280;40758;54.038;11.684;2023-02-17T03:30:46;100967.84;;;7.31;100.00
7297;BME280;40758;54.038;11.684;2023-02-17T03:33:15;100957.91;;;7.34;100.00
7297;BME280;40758;54.038;11.684;2023-02-17T03:35:45;100963.50;;;7.43;100.00
7297;BME280;40758;54.038;11.684;2023-02-17T03:38:13;100966.16;;;7.43;100.00
7297;BME280;40758;54.038;11.684;2023-02-17T03:40:42;100961.59;;;7.45;100.00
7297;BME280;40758;54.038;11.684;2023-02-17T03:43:10;100955.81;;;7.51;100.00
7297;BME280;40758;54.038;11.684;2023-02-17T03:45:39;100947.25;;;7.46;100.00
7297;BME280;40758;54.038;11.684;2023-02-17T03:48:07;100951.53;;;7.49;100.00
7297;BME280;40758;54.038;11.684;2023-02-17T03:50:36;100959.22;;;7.53;100.00
7297;BME280;40758;54.038;11.684;2023-02-17T03:53:05;100961.16;;;7.51;100.00
7297;BME280;40758;54.038;11.684;2023-02-17T03:55:34;100974.44;;;7.53;100.00
7297;BME280;40758;54.038;11.684;2023-02-17T03:58:03;100961.72;;;7.56;100.00
7297;BME280;40758;54.038;11.684;2023-02-17T04:00:32;100959.91;;;7.57;100.00
7297;BME280;40758;54.038;11.684;2023-02-17T04:03:00;100954.47;;;7.58;100.00
7297;BME280;40758;54.038;11.684;2023-02-17T04:05:29;100948.66;;;7.52;100.00
7297;BME280;40758;54.038;11.684;2023-02-17T04:07:58;100942.38;;;7.53;100.00
7297;BME280;40758;54.038;11.684;2023-02-17T04:10:29;100926.97;;;7.56;100.00
7297;BME280;40758;54.038;11.684;2023-02-17T04:12:58;100943.41;;;7.50;100.00
7297;BME280;40758;54.038;11.684;2023-02-17T04:15:26;100933.06;;;7.58;100.00
7297;BME280;40758;54.038;11.684;2023-02-17T04:17:56;100920.97;;;7.53;100.00
7297;BME280;40758;54.038;11.684;2023-02-17T04:20:24;100929.31;;;7.61;100.00
7297;BME280;40758;54.038;11.684;2023-02-17T04:22:53;100927.72;;;7.58;100.00
7297;BME280;40758;54.038;11.684;2023-02-17T04:25:21;100928.69;;;7.57;100.00
7297;BME280;40758;54.038;11.684;2023-02-17T04:27:51;100933.38;;;7.66;100.00
7297;BME280;40758;54.038;11.684;2023-02-17T04:30:20;100943.66;;;7.72;100.00
7297;BME280;40758;54.038;11.684;2023-02-17T04:32:49;100932.00;;;7.73;100.00
7297;BME280;40758;54.038;11.684;2023-02-17T04:35:17;100940.25;;;7.70;100.00
7297;BME280;40758;54.038;11.684;2023-02-17T04:37:46;100932.09;;;7.72;100.00
7297;BME280;40758;54.038;11.684;2023-02-17T04:40:15;100932.97;;;7.72;100.00
7297;BME280;40758;54.038;11.684;2023-02-17T04:42:44;100925.25;;;7.68;100.00
7297;BME280;40758;54.038;11.684;2023-02-17T04:45:14;100916.91;;;7.72;100.00
7297;BME280;40758;54.038;11.684;2023-02-17T04:47:42;100905.81;;;7.79;100.00
7297;BME280;40758;54.038;11.684;2023-02-17T04:50:11;100912.22;;;7.76;100.00
7297;BME280;40758;54.038;11.684;2023-02-17T04:52:40;100908.47;;;7.79;100.00
7297;BME280;40758;54.038;11.684;2023-02-17T04:55:08;100904.00;;;7.79;100.00
7297;BME280;40758;54.038;11.684;2023-02-17T04:57:37;100887.41;;;7.74;100.00
7297;BME280;40758;54.038;11.684;2023-02-17T05:00:08;100893.63;;;7.75;100.00
7297;BME280;40758;54.038;11.684;2023-02-17T05:02:38;100889.56;;;7.82;100.00
7297;BME280;40758;54.038;11.684;2023-02-17T05:05:07;100878.31;;;7.77;100.00
7297;BME280;40758;54.038;11.684;2023-02-17T05:07:38;100867.06;;;7.71;100.00
7297;BME280;40758;54.038;11.684;2023-02-17T05:10:08;100872.13;;;7.76;100.00
7297;BME280;40758;54.038;11.684;2023-02-17T05:12:37;100872.75;;;7.80;100.00
7297;BME280;40758;54.038;11.684;2023-02-17T05:15:07;100857.66;;;7.79;100.00
7297;BME280;40758;54.038;11.684;2023-02-17T05:17:38;100859.19;;;7.83;100.00
7297;BME280;40758;54.038;11.684;2023-02-17T05:20:08;100847.38;;;7.85;100.00
7297;BME280;40758;54.038;11.684;2023-02-17T05:22:37;100843.31;;;7.80;100.00
7297;BME280;40758;54.038;11.684;2023-02-17T05:25:07;100855.75;;;7.81;100.00
7297;BME280;40758;54.038;11.684;2023-02-17T05:27:35;100846.09;;;7.91;100.00
7297;BME280;40758;54.038;11.684;2023-02-17T05:30:06;100849.44;;;7.94;100.00
7297;BME280;40758;54.038;11.684;2023-02-17T05:32:35;100839.06;;;7.90;100.00
7297;BME280;40758;54.038;11.684;2023-02-17T05:35:07;100826.50;;;7.90;100.00
7297;BME280;40758;54.038;11.684;2023-02-17T05:37:36;100817.09;;;7.85;100.00
7297;BME280;40758;54.038;11.684;2023-02-17T05:40:07;100823.00;;;7.90;100.00
7297;BME280;40758;54.038;11.684;2023-02-17T05:42:36;100819.16;;;7.94;100.00
7297;BME280;40758;54.038;11.684;2023-02-17T05:45:05;100814.44;;;7.85;100.00
7297;BME280;40758;54.038;11.684;2023-02-17T05:47:34;100813.56;;;7.97;100.00
7297;BME280;40758;54.038;11.684;2023-02-17T05:50:06;100816.13;;;8.11;100.00
7297;BME280;40758;54.038;11.684;2023-02-17T05:52:35;100807.16;;;7.99;100.00
7297;BME280;40758;54.038;11.684;2023-02-17T05:55:04;100799.22;;;7.98;100.00
7297;BME280;40758;54.038;11.684;2023-02-17T05:57:33;100785.84;;;7.98;100.00
7297;BME280;40758;54.038;11.684;2023-02-17T06:00:03;100779.34;;;8.02;100.00
7297;BME280;40758;54.038;11.684;2023-02-17T06:02:32;100781.16;;;8.01;100.00
7297;BME280;40758;54.038;11.684;2023-02-17T06:05:01;100769.78;;;8.10;100.00
7297;BME280;40758;54.038;11.684;2023-02-17T06:07:31;100770.09;;;8.19;100.00
7297;BME280;40758;54.038;11.684;2023-02-17T06:10:00;100772.88;;;8.17;100.00
7297;BME280;40758;54.038;11.684;2023-02-17T06:12:28;100778.22;;;8.17;100.00
7297;BME280;40758;54.038;11.684;2023-02-17T06:14:57;100784.84;;;8.24;100.00
7297;BME280;40758;54.038;11.684;2023-02-17T06:17:26;100777.78;;;8.23;100.00
7297;BME280;40758;54.038;11.684;2023-02-17T06:19:54;100785.69;;;8.37;100.00
7297;BME280;40758;54.038;11.684;2023-02-17T06:22:22;100771.78;;;8.32;100.00
7297;BME280;40758;54.038;11.684;2023-02-17T06:24:53;100774.97;;;8.37;100.00
7297;BME280;40758;54.038;11.684;2023-02-17T06:27:22;100768.78;;;8.37;100.00
7297;BME280;40758;54.038;11.684;2023-02-17T06:29:51;100756.97;;;8.39;100.00
7297;BME280;40758;54.038;11.684;2023-02-17T06:32:19;100762.78;;;8.33;100.00
7297;BME280;40758;54.038;11.684;2023-02-17T06:34:48;100750.56;;;8.29;100.00
7297;BME280;40758;54.038;11.684;2023-02-17T06:37:17;100736.41;;;8.40;100.00
7297;BME280;40758;54.038;11.684;2023-02-17T06:39:45;100749.22;;;8.47;100.00
7297;BME280;40758;54.038;11.684;2023-02-17T06:42:15;100749.88;;;8.51;100.00
7297;BME280;40758;54.038;11.684;2023-02-17T06:44:43;100743.91;;;8.59;100.00
7297;BME280;40758;54.038;11.684;2023-02-17T06:47:12;100738.91;;;8.54;100.00
7297;BME280;40758;54.038;11.684;2023-02-17T06:49:41;100730.03;;;8.53;100.00
7297;BME280;40758;54.038;11.684;2023-02-17T06:52:09;100731.44;;;8.46;100.00
7297;BME280;40758;54.038;11.684;2023-02-17T06:54:38;100717.09;;;8.47;100.00
7297;BME280;40758;54.038;11.684;2023-02-17T06:57:06;100706.19;;;8.50;100.00
7297;BME280;40758;54.038;11.684;2023-02-17T06:59:36;100703.72;;;8.47;100.00
7297;BME280;40758;54.038;11.684;2023-02-17T07:02:10;100696.13;;;8.65;100.00
7297;BME280;40758;54.038;11.684;2023-02-17T07:04:39;100689.66;;;8.57;100.00
7297;BME280;40758;54.038;11.684;2023-02-17T07:07:09;100674.75;;;8.52;100.00
7297;BME280;40758;54.038;11.684;2023-02-17T07:09:39;100673.41;;;8.47;100.00
7297;BME280;40758;54.038;11.684;2023-02-17T07:12:08;100673.34;;;8.60;100.00
7297;BME280;40758;54.038;11.684;2023-02-17T07:14:38;100666.41;;;8.57;100.00
7297;BME280;40758;54.038;11.684;2023-02-17T07:17:06;100673.59;;;8.57;100.00
7297;BME280;40758;54.038;11.684;2023-02-17T07:19:35;100672.25;;;8.62;100.00
7297;BME280;40758;54.038;11.684;2023-02-17T07:22:03;100664.13;;;8.64;100.00
7297;BME280;40758;54.038;11.684;2023-02-17T07:24:32;100664.72;;;8.67;100.00
7297;BME280;40758;54.038;11.684;2023-02-17T07:27:01;100665.78;;;8.65;100.00
7297;BME280;40758;54.038;11.684;2023-02-17T07:29:31;100670.34;;;8.75;100.00
7297;BME280;40758;54.038;11.684;2023-02-17T07:32:01;100654.63;;;8.71;100.00
7297;BME280;40758;54.038;11.684;2023-02-17T07:34:30;100646.34;;;8.74;100.00
7297;BME280;40758;54.038;11.684;2023-02-17T07:36:59;100647.78;;;8.67;100.00
7297;BME280;40758;54.038;11.684;2023-02-17T07:39:27;100646.09;;;8.66;100.00
7297;BME280;40758;54.038;11.684;2023-02-17T07:41:56;100635.88;;;8.71;100.00
7297;BME280;40758;54.038;11.684;2023-02-17T07:44:27;100644.53;;;8.74;100.00
7297;BME280;40758;54.038;11.684;2023-02-17T07:46:58;100627.34;;;8.77;100.00
7297;BME280;40758;54.038;11.684;2023-02-17T07:49:29;100622.47;;;8.71;100.00
7297;BME280;40758;54.038;11.684;2023-02-17T07:51:58;100611.44;;;8.75;100.00
7297;BME280;40758;54.038;11.684;2023-02-17T07:54:31;100610.47;;;8.76;100.00
7297;BME280;40758;54.038;11.684;2023-02-17T07:57:00;100608.00;;;8.73;100.00
7297;BME280;40758;54.038;11.684;2023-02-17T07:59:30;100609.81;;;8.73;100.00
7297;BME280;40758;54.038;11.684;2023-02-17T08:02:02;100618.75;;;8.84;100.00
7297;BME280;40758;54.038;11.684;2023-02-17T08:04:33;100612.53;;;8.84;100.00
7297;BME280;40758;54.038;11.684;2023-02-17T08:07:02;100608.66;;;8.88;100.00
7297;BME280;40758;54.038;11.684;2023-02-17T08:09:31;100595.47;;;8.85;100.00
7297;BME280;40758;54.038;11.684;2023-02-17T08:12:19;100588.06;;;8.88;100.00
7297;BME280;40758;54.038;11.684;2023-02-17T08:15:10;100580.25;;;8.85;100.00
7297;BME280;40758;54.038;11.684;2023-02-17T08:17:40;100581.59;;;8.91;100.00
7297;BME280;40758;54.038;11.684;2023-02-17T08:20:12;100574.53;;;9.01;100.00
7297;BME280;40758;54.038;11.684;2023-02-17T08:22:42;100575.88;;;8.96;100.00
7297;BME280;40758;54.038;11.684;2023-02-17T08:25:11;100559.19;;;9.03;100.00
7297;BME280;40758;54.038;11.684;2023-02-17T08:27:40;100566.63;;;9.00;100.00
7297;BME280;40758;54.038;11.684;2023-02-17T08:30:11;100552.13;;;9.02;100.00
7297;BME280;40758;54.038;11.684;2023-02-17T08:32:40;100551.16;;;9.03;100.00
7297;BME280;40758;54.038;11.684;2023-02-17T08:35:09;100550.19;;;9.04;100.00
7297;BME280;40758;54.038;11.684;2023-02-17T08:37:41;100543.97;;;9.15;100.00
7297;BME280;40758;54.038;11.684;2023-02-17T08:40:10;100531.91;;;9.09;100.00
7297;BME280;40758;54.038;11.684;2023-02-17T08:42:39;100526.91;;;9.16;100.00
7297;BME280;40758;54.038;11.684;2023-02-17T08:45:09;100529.72;;;9.14;100.00
7297;BME280;40758;54.038;11.684;2023-02-17T08:47:40;100515.09;;;9.18;100.00
7297;BME280;40758;54.038;11.684;2023-02-17T08:50:12;100507.78;;;9.20;100.00
7297;BME280;40758;54.038;11.684;2023-02-17T08:52:45;100510.44;;;9.20;100.00
7297;BME280;40758;54.038;11.684;2023-02-17T08:55:14;100494.50;;;9.19;100.00
7297;BME280;40758;54.038;11.684;2023-02-17T08:57:45;100493.16;;;9.24;100.00
7297;BME280;40758;54.038;11.684;2023-02-17T09:00:16;100486.81;;;9.25;100.00
7297;BME280;40758;54.038;11.684;2023-02-17T09:02:45;100484.16;;;9.25;100.00
7297;BME280;40758;54.038;11.684;2023-02-17T09:05:14;100484.16;;;9.25;100.00
7297;BME280;40758;54.038;11.684;2023-02-17T09:07:44;100485.22;;;9.23;100.00
7297;BME280;40758;54.038;11.684;2023-02-17T09:10:13;100471.72;;;9.24;100.00
7297;BME280;40758;54.038;11.684;2023-02-17T09:12:43;100469.66;;;9.17;100.00
7297;BME280;40758;54.038;11.684;2023-02-17T09:15:11;100469.50;;;9.29;100.00
7297;BME280;40758;54.038;11.684;2023-02-17T09:17:40;100448.91;;;9.30;100.00
7297;BME280;40758;54.038;11.684;2023-02-17T09:20:10;100451.22;;;9.34;100.00
7297;BME280;40758;54.038;11.684;2023-02-17T09:22:52;100446.34;;;9.28;100.00
7297;BME280;40758;54.038;11.684;2023-02-17T09:25:21;100450.97;;;9.26;100.00
7297;BME280;40758;54.038;11.684;2023-02-17T09:27:50;100467.56;;;9.31;100.00
7297;BME280;40758;54.038;11.684;2023-02-17T09:30:19;100445.38;;;9.29;100.00
7297;BME280;40758;54.038;11.684;2023-02-17T09:32:48;100450.47;;;9.32;100.00
7297;BME280;40758;54.038;11.684;2023-02-17T09:35:17;100424.50;;;9.33;100.00
7297;BME280;40758;54.038;11.684;2023-02-17T09:37:46;100418.06;;;9.36;100.00
7297;BME280;40758;54.038;11.684;2023-02-17T09:40:21;100403.22;;;9.31;100.00
7297;BME280;40758;54.038;11.684;2023-02-17T09:42:51;100402.03;;;9.24;100.00
7297;BME280;40758;54.038;11.684;2023-02-17T09:45:24;100416.13;;;9.26;100.00
7297;BME280;40758;54.038;11.684;2023-02-17T09:47:59;100415.78;;;9.31;100.00
7297;BME280;40758;54.038;11.684;2023-02-17T09:50:39;100408.81;;;9.28;100.00
7297;BME280;40758;54.038;11.684;2023-02-17T09:53:19;100406.25;;;9.27;100.00
7297;BME280;40758;54.038;11.684;2023-02-17T09:55:54;100400.78;;;9.28;100.00
7297;BME280;40758;54.038;11.684;2023-02-17T09:58:31;100394.06;;;9.34;100.00
7297;BME280;40758;54.038;11.684;2023-02-17T10:01:08;100388.81;;;9.32;100.00
7297;BME280;40758;54.038;11.684;2023-02-17T10:03:43;100385.78;;;9.37;100.00
7297;BME280;40758;54.038;11.684;2023-02-17T10:06:17;100366.28;;;9.35;100.00
7297;BME280;40758;54.038;11.684;2023-02-17T10:08:53;100361.75;;;9.36;100.00
7297;BME280;40758;54.038;11.684;2023-02-17T10:11:30;100371.06;;;9.31;100.00
7297;BME280;40758;54.038;11.684;2023-02-17T10:14:05;100385.88;;;9.36;100.00
7297;BME280;40758;54.038;11.684;2023-02-17T10:16:44;100380.91;;;9.31;100.00
7297;BME280;40758;54.038;11.684;2023-02-17T10:19:24;100384.81;;;9.27;100.00
7297;BME280;40758;54.038;11.684;2023-02-17T10:22:04;100379.22;;;9.30;100.00
7297;BME280;40758;54.038;11.684;2023-02-17T10:24:34;100363.25;;;9.28;100.00
7297;BME280;40758;54.038;11.684;2023-02-17T10:27:22;100355.94;;;9.30;100.00
7297;BME280;40758;54.038;11.684;2023-02-17T10:30:11;100364.34;;;9.26;100.00
7297;BME280;40758;54.038;11.684;2023-02-17T10:32:58;100378.34;;;9.29;100.00
7297;BME280;40758;54.038;11.684;2023-02-17T10:35:49;100368.72;;;9.27;100.00
7297;BME280;40758;54.038;11.684;2023-02-17T10:38:36;100361.94;;;9.23;100.00
7297;BME280;40758;54.038;11.684;2023-02-17T10:41:14;100351.56;;;9.29;100.00
7297;BME280;40758;54.038;11.684;2023-02-17T10:43:47;100344.47;;;9.28;100.00
7297;BME280;40758;54.038;11.684;2023-02-17T10:46:23;100334.94;;;9.36;100.00
7297;BME280;40758;54.038;11.684;2023-02-17T10:48:57;100345.66;;;9.36;100.00
7297;BME280;40758;54.038;11.684;2023-02-17T10:51:29;100340.31;;;9.36;100.00
7297;BME280;40758;54.038;11.684;2023-02-17T10:54:06;100340.09;;;9.27;100.00
7297;BME280;40758;54.038;11.684;2023-02-17T10:56:43;100344.25;;;9.31;100.00
7297;BME280;40758;54.038;11.684;2023-02-17T10:59:21;100344.81;;;9.35;100.00
7297;BME280;40758;54.038;11.684;2023-02-17T11:01:51;100345.66;;;9.36;100.00
7297;BME280;40758;54.038;11.684;2023-02-17T11:04:23;100361.25;;;9.42;100.00
7297;BME280;40758;54.038;11.684;2023-02-17T11:06:53;100350.75;;;9.39;100.00
7297;BME280;40758;54.038;11.684;2023-02-17T11:09:24;100327.63;;;9.38;100.00
7297;BME280;40758;54.038;11.684;2023-02-17T11:12:00;100340.03;;;9.39;100.00
7297;BME280;40758;54.038;11.684;2023-02-17T11:14:32;100333.69;;;9.40;100.00
7297;BME280;40758;54.038;11.684;2023-02-17T11:17:15;100310.53;;;9.39;100.00
7297;BME280;40758;54.038;11.684;2023-02-17T11:19:55;100288.41;;;9.37;100.00
7297;BME280;40758;54.038;11.684;2023-02-17T11:22:37;100297.13;;;9.39;100.00
7297;BME280;40758;54.038;11.684;2023-02-17T11:25:21;100299.13;;;9.37;100.00
7297;BME280;40758;54.038;11.684;2023-02-17T11:27:51;100306.44;;;9.34;100.00
7297;BME280;40758;54.038;11.684;2023-02-17T11:30:22;100289.50;;;9.34;100.00
7297;BME280;40758;54.038;11.684;2023-02-17T11:32:52;100272.56;;;9.33;100.00
7297;BME280;40758;54.038;11.684;2023-02-17T11:35:26;100273.41;;;9.34;100.00
7297;BME280;40758;54.038;11.684;2023-02-17T11:38:00;100275.69;;;9.39;100.00
7297;BME280;40758;54.038;11.684;2023-02-17T11:40:31;100287.25;;;9.39;100.00
7297;BME280;40758;54.038;11.684;2023-02-17T11:43:02;100280.81;;;9.42;100.00
7297;BME280;40758;54.038;11.684;2023-02-17T11:45:51;100258.81;;;9.48;100.00
7297;BME280;40758;54.038;11.684;2023-02-17T11:48:56;100274.38;;;9.54;100.00
7297;BME280;40758;54.038;11.684;2023-02-17T11:51:42;100274.84;;;9.59;100.00
7297;BME280;40758;54.038;11.684;2023-02-17T11:54:25;100272.44;;;9.56;100.00
7297;BME280;40758;54.038;11.684;2023-02-17T11:57:19;100261.19;;;9.62;100.00
7297;BME280;40758;54.038;11.684;2023-02-17T12:00:04;100256.38;;;9.65;100.00
7297;BME280;40758;54.038;11.684;2023-02-17T12:03:07;100254.13;;;9.61;100.00
7297;BME280;40758;54.038;11.684;2023-02-17T12:05:54;100250.16;;;9.65;100.00
7297;BME280;40758;54.038;11.684;2023-02-17T12:08:40;100262.03;;;9.62;100.00
7297;BME280;40758;54.038;11.684;2023-02-17T12:11:25;100253.13;;;9.62;100.00
7297;BME280;40758;54.038;11.684;2023-02-17T12:14:39;100248.03;;;9.59;100.00
7297;BME280;40758;54.038;11.684;2023-02-17T12:17:21;100253.25;;;9.60;100.00
7297;BME280;40758;54.038;11.684;2023-02-17T12:20:06;100247.16;;;9.58;100.00
7297;BME280;40758;54.038;11.684;2023-02-17T12:22:55;100239.72;;;9.62;100.00
7297;BME280;40758;54.038;11.684;2023-02-17T12:25:32;100228.28;;;9.60;100.00
7297;BME280;40758;54.038;11.684;2023-02-17T12:28:32;100220.22;;;9.60;100.00
7297;BME280;40758;54.038;11.684;2023-02-17T12:31:13;100230.94;;;9.60;100.00
7297;BME280;40758;54.038;11.684;2023-02-17T12:33:56;100235.34;;;9.61;100.00
7297;BME280;40758;54.038;11.684;2023-02-17T12:36:34;100227.84;;;9.64;100.00
7297;BME280;40758;54.038;11.684;2023-02-17T12:39:15;100222.25;;;9.67;100.00
7297;BME280;40758;54.038;11.684;2023-02-17T12:41:50;100201.88;;;9.65;100.00
7297;BME280;40758;54.038;11.684;2023-02-17T12:44:27;100218.84;;;9.65;100.00
7297;BME280;40758;54.038;11.684;2023-02-17T12:47:01;100216.03;;;9.67;100.00
7297;BME280;40758;54.038;11.684;2023-02-17T12:49:38;100181.72;;;9.70;100.00
7297;BME280;40758;54.038;11.684;2023-02-17T12:52:18;100197.44;;;9.75;100.00
7297;BME280;40758;54.038;11.684;2023-02-17T12:54:55;100195.72;;;9.74;100.00
7297;BME280;40758;54.038;11.684;2023-02-17T12:57:34;100190.06;;;9.77;100.00
7297;BME280;40758;54.038;11.684;2023-02-17T13:00:17;100166.91;;;9.76;100.00
7297;BME280;40758;54.038;11.684;2023-02-17T13:02:47;100193.91;;;9.74;100.00
7297;BME280;40758;54.038;11.684;2023-02-17T13:05:24;100203.63;;;9.75;100.00
7297;BME280;40758;54.038;11.684;2023-02-17T13:07:59;100191.22;;;9.74;100.00
7297;BME280;40758;54.038;11.684;2023-02-17T13:10:36;100190.06;;;9.77;100.00
7297;BME280;40758;54.038;11.684;2023-02-17T13:13:10;100193.47;;;9.79;100.00
7297;BME280;40758;54.038;11.684;2023-02-17T13:15:43;100194.22;;;9.81;100.00
7297;BME280;40758;54.038;11.684;2023-02-17T13:18:24;100182.75;;;9.79;100.00
7297;BME280;40758;54.038;11.684;2023-02-17T13:20:58;100153.25;;;9.79;100.00
7297;BME280;40758;54.038;11.684;2023-02-17T13:23:36;100170.31;;;9.78;100.00
7297;BME280;40758;54.038;11.684;2023-02-17T13:26:28;100187.16;;;9.80;100.00